createdAt,value
2019-04-06T00:00:03.158Z,-1.0840
2019-04-06T00:00:14.307Z,-1.0479
2019-04-06T00:00:25.459Z,-1.0166
2019-04-06T00:00:36.599Z,-0.9853
2019-04-06T00:00:47.760Z,-0.9568
2019-04-06T00:00:58.929Z,-0.9155
2019-04-06T00:01:10.071Z,-0.8711
2019-04-06T00:01:21.221Z,-0.8331
2019-04-06T00:01:31.384Z,-0.7995
2019-04-06T00:01:42.535Z,-0.7678
2019-04-06T00:01:53.676Z,-0.7281
2019-04-06T00:02:04.839Z,-0.6980
2019-04-06T00:02:16.034Z,-0.6830
2019-04-06T00:02:27.198Z,-0.6732
2019-04-06T00:02:38.363Z,-0.6700
2019-04-06T00:02:49.527Z,-0.6700
2019-04-06T00:03:00.701Z,-0.6776
2019-04-06T00:03:11.863Z,-0.6903
2019-04-06T00:03:23.057Z,-0.6987
2019-04-06T00:03:34.214Z,-0.7117
2019-04-06T00:03:45.368Z,-0.7333
2019-04-06T00:03:56.536Z,-0.7582
2019-04-06T00:04:07.731Z,-0.7812
2019-04-06T00:04:18.888Z,-0.8012
2019-04-06T00:04:30.065Z,-0.8280
2019-04-06T00:04:41.235Z,-0.8521
2019-04-06T00:04:52.388Z,-0.8791
2019-04-06T00:05:03.529Z,-0.9068
2019-04-06T00:05:14.689Z,-0.9357
2019-04-06T00:05:25.878Z,-0.9642
2019-04-06T00:05:37.061Z,-0.9844
2019-04-06T00:05:48.222Z,-1.0095
2019-04-06T00:05:59.445Z,-1.0340
2019-04-06T00:06:10.639Z,-1.0602
2019-04-06T00:06:21.785Z,-1.0908
2019-04-06T00:06:32.939Z,-1.1210
2019-04-06T00:06:44.116Z,-1.1491
2019-04-06T00:06:55.259Z,-1.1702
2019-04-06T00:07:06.456Z,-1.1963
2019-04-06T00:07:17.599Z,-1.2215
2019-04-06T00:07:28.747Z,-1.2551
2019-04-06T00:07:39.916Z,-1.2862
2019-04-06T00:07:51.058Z,-1.3197
2019-04-06T00:08:02.201Z,-1.3437
2019-04-06T00:08:13.397Z,-1.3702
2019-04-06T00:08:23.549Z,-1.3963
2019-04-06T00:08:33.697Z,-1.4143
2019-04-06T00:08:44.895Z,-1.4351
2019-04-06T00:08:56.057Z,-1.4540
2019-04-06T00:09:07.211Z,-1.4685
2019-04-06T00:09:18.378Z,-1.4831
2019-04-06T00:09:29.517Z,-1.4935
2019-04-06T00:09:40.679Z,-1.5066
2019-04-06T00:09:51.827Z,-1.5124
2019-04-06T00:10:02.982Z,-1.5186
2019-04-06T00:10:14.138Z,-1.5229
2019-04-06T00:10:25.332Z,-1.5294
2019-04-06T00:10:36.487Z,-1.5338
2019-04-06T00:10:47.666Z,-1.5408
2019-04-06T00:10:58.821Z,-1.5415
2019-04-06T00:11:09.979Z,-1.5423
2019-04-06T00:11:21.162Z,-1.5340
2019-04-06T00:11:32.309Z,-1.5233
2019-04-06T00:11:43.469Z,-1.5125
2019-04-06T00:11:54.627Z,-1.5018
2019-04-06T00:12:05.768Z,-1.4891
2019-04-06T00:12:16.970Z,-1.4800
2019-04-06T00:12:28.119Z,-1.4698
2019-04-06T00:12:39.281Z,-1.4549
2019-04-06T00:12:50.500Z,-1.4341
2019-04-06T00:13:01.704Z,-1.4125
2019-04-06T00:13:12.857Z,-1.3947
2019-04-06T00:13:24.053Z,-1.3766
2019-04-06T00:13:35.211Z,-1.3662
2019-04-06T00:13:46.361Z,-1.3602
2019-04-06T00:13:57.532Z,-1.3579
2019-04-06T00:14:08.693Z,-1.3679
2019-04-06T00:14:19.869Z,-1.3765
2019-04-06T00:14:31.021Z,-1.3914
2019-04-06T00:14:42.176Z,-1.4026
2019-04-06T00:14:53.359Z,-1.4185
2019-04-06T00:15:04.509Z,-1.4389
2019-04-06T00:15:15.648Z,-1.4536
2019-04-06T00:15:26.808Z,-1.4653
2019-04-06T00:15:37.957Z,-1.4777
2019-04-06T00:15:49.111Z,-1.4858
2019-04-06T00:16:00.329Z,-1.4862
2019-04-06T00:16:11.576Z,-1.4868
2019-04-06T00:16:22.738Z,-1.4837
2019-04-06T00:16:33.898Z,-1.4739
2019-04-06T00:16:45.037Z,-1.4450
2019-04-06T00:16:56.211Z,-1.4016
2019-04-06T00:17:07.357Z,-1.3637
2019-04-06T00:17:18.516Z,-1.3367
2019-04-06T00:17:29.658Z,-1.3138
2019-04-06T00:17:40.817Z,-1.2904
2019-04-06T00:17:51.984Z,-1.2745
2019-04-06T00:18:03.139Z,-1.2555
2019-04-06T00:18:14.299Z,-1.2311
2019-04-06T00:18:25.451Z,-1.2083
2019-04-06T00:18:36.589Z,-1.1900
2019-04-06T00:18:47.747Z,-1.1731
2019-04-06T00:18:58.909Z,-1.1596
2019-04-06T00:19:10.077Z,-1.1492
2019-04-06T00:19:21.219Z,-1.1348
2019-04-06T00:19:32.367Z,-1.1232
2019-04-06T00:19:43.529Z,-1.1113
2019-04-06T00:19:54.676Z,-1.0988
2019-04-06T00:20:05.815Z,-1.0896
2019-04-06T00:20:16.966Z,-1.0829
2019-04-06T00:20:28.108Z,-1.0750
2019-04-06T00:20:39.271Z,-1.0653
2019-04-06T00:20:50.435Z,-1.0529
2019-04-06T00:21:01.613Z,-1.0458
2019-04-06T00:21:12.772Z,-1.0402
2019-04-06T00:21:23.960Z,-1.0358
2019-04-06T00:21:35.109Z,-1.0380
2019-04-06T00:21:46.247Z,-1.0421
2019-04-06T00:21:57.409Z,-1.0510
2019-04-06T00:22:08.581Z,-1.0638
2019-04-06T00:22:19.735Z,-1.0824
2019-04-06T00:22:30.898Z,-1.0999
2019-04-06T00:22:42.065Z,-1.1205
2019-04-06T00:22:53.207Z,-1.1404
2019-04-06T00:23:04.405Z,-1.1593
2019-04-06T00:23:15.571Z,-1.1826
2019-04-06T00:23:26.726Z,-1.2056
2019-04-06T00:23:37.868Z,-1.2256
2019-04-06T00:23:49.028Z,-1.2493
2019-04-06T00:24:00.205Z,-1.2688
2019-04-06T00:24:11.368Z,-1.2796
2019-04-06T00:24:22.539Z,-1.2810
2019-04-06T00:24:33.751Z,-1.2795
2019-04-06T00:24:44.909Z,-1.2848
2019-04-06T00:24:56.070Z,-1.2761
2019-04-06T00:25:07.217Z,-1.2630
2019-04-06T00:25:18.377Z,-1.2364
2019-04-06T00:25:29.527Z,-1.2182
2019-04-06T00:25:44.712Z,-1.1851
2019-04-06T00:25:56.169Z,-1.1429
2019-04-06T00:26:07.312Z,-1.1058
2019-04-06T00:26:18.540Z,-1.0620
2019-04-06T00:26:29.697Z,-1.0195
2019-04-06T00:26:40.881Z,-0.9863
2019-04-06T00:26:52.029Z,-0.9634
2019-04-06T00:27:03.195Z,-0.9411
2019-04-06T00:27:14.358Z,-0.9313
2019-04-06T00:27:25.518Z,-0.9264
2019-04-06T00:27:36.730Z,-0.9246
2019-04-06T00:27:47.875Z,-0.9270
2019-04-06T00:27:59.025Z,-0.9360
2019-04-06T00:28:10.179Z,-0.9424
2019-04-06T00:28:21.325Z,-0.9518
2019-04-06T00:28:32.517Z,-0.9610
2019-04-06T00:28:43.679Z,-0.9675
2019-04-06T00:28:54.842Z,-0.9659
2019-04-06T00:29:05.997Z,-0.9587
2019-04-06T00:29:17.165Z,-0.9451
2019-04-06T00:29:28.327Z,-0.9363
2019-04-06T00:29:39.468Z,-0.9279
2019-04-06T00:29:50.634Z,-0.9218
2019-04-06T00:30:01.779Z,-0.9177
2019-04-06T00:30:12.987Z,-0.9131
2019-04-06T00:30:24.151Z,-0.9129
2019-04-06T00:30:35.309Z,-0.9181
2019-04-06T00:30:46.494Z,-0.9266
2019-04-06T00:30:57.639Z,-0.9361
2019-04-06T00:31:08.787Z,-0.9469
2019-04-06T00:31:19.929Z,-0.9612
2019-04-06T00:31:31.081Z,-0.9751
2019-04-06T00:31:42.242Z,-0.9875
2019-04-06T00:31:53.391Z,-1.0104
2019-04-06T00:32:04.568Z,-1.0331
2019-04-06T00:32:15.733Z,-1.0560
2019-04-06T00:32:26.886Z,-1.0816
2019-04-06T00:32:38.051Z,-1.1035
2019-04-06T00:32:49.199Z,-1.1187
2019-04-06T00:33:00.349Z,-1.1359
2019-04-06T00:33:11.497Z,-1.1502
2019-04-06T00:33:22.673Z,-1.1611
2019-04-06T00:33:33.955Z,-1.1750
2019-04-06T00:33:44.108Z,-1.1875
2019-04-06T00:33:55.257Z,-1.1937
2019-04-06T00:34:06.479Z,-1.2017
2019-04-06T00:34:17.637Z,-1.2068
2019-04-06T00:34:28.776Z,-1.2146
2019-04-06T00:34:39.921Z,-1.2194
2019-04-06T00:34:51.078Z,-1.2177
2019-04-06T00:35:02.229Z,-1.2216
2019-04-06T00:35:13.387Z,-1.2245
2019-04-06T00:35:24.527Z,-1.2250
2019-04-06T00:35:35.687Z,-1.2273
2019-04-06T00:35:46.840Z,-1.2257
2019-04-06T00:35:58.003Z,-1.2216
2019-04-06T00:36:09.174Z,-1.2153
2019-04-06T00:36:20.357Z,-1.2034
2019-04-06T00:36:30.561Z,-1.1841
2019-04-06T00:36:41.721Z,-1.1508
2019-04-06T00:36:52.879Z,-1.1233
2019-04-06T00:37:04.046Z,-1.0899
2019-04-06T00:37:15.209Z,-1.0528
2019-04-06T00:37:25.388Z,-1.0050
2019-04-06T00:37:36.547Z,-0.9540
2019-04-06T00:37:47.707Z,-0.8946
2019-04-06T00:37:58.850Z,-0.8451
2019-04-06T00:38:10.022Z,-0.7957
2019-04-06T00:38:21.187Z,-0.7420
2019-04-06T00:38:33.856Z,-0.6816
2019-04-06T00:38:45.198Z,-0.6132
2019-04-06T00:38:56.363Z,-0.5598
2019-04-06T00:39:08.395Z,-0.5204
2019-04-06T00:39:19.560Z,-0.4876
2019-04-06T00:39:29.706Z,-0.4669
2019-04-06T00:39:40.849Z,-0.4449
2019-04-06T00:39:52.062Z,-0.4335
2019-04-06T00:40:03.211Z,-0.4297
2019-04-06T00:40:14.385Z,-0.4273
2019-04-06T00:40:25.557Z,-0.4276
2019-04-06T00:40:36.718Z,-0.4298
2019-04-06T00:40:47.858Z,-0.4295
2019-04-06T00:40:59.005Z,-0.4283
2019-04-06T00:41:10.158Z,-0.4268
2019-04-06T00:41:21.323Z,-0.4227
2019-04-06T00:41:32.485Z,-0.4214
2019-04-06T00:41:43.638Z,-0.4243
2019-04-06T00:41:54.788Z,-0.4299
2019-04-06T00:42:06.011Z,-0.4389
2019-04-06T00:42:17.216Z,-0.4599
2019-04-06T00:42:28.417Z,-0.4744
2019-04-06T00:42:39.558Z,-0.4979
2019-04-06T00:42:50.707Z,-0.5183
2019-04-06T00:43:01.866Z,-0.5448
2019-04-06T00:43:13.014Z,-0.5719
2019-04-06T00:43:24.159Z,-0.6010
2019-04-06T00:43:35.315Z,-0.6226
2019-04-06T00:43:46.458Z,-0.6472
2019-04-06T00:43:57.635Z,-0.6769
2019-04-06T00:44:08.788Z,-0.7003
2019-04-06T00:44:19.953Z,-0.7263
2019-04-06T00:44:31.111Z,-0.7506
2019-04-06T00:44:42.259Z,-0.7689
2019-04-06T00:44:53.470Z,-0.7879
2019-04-06T00:45:04.657Z,-0.7968
2019-04-06T00:45:15.816Z,-0.8022
2019-04-06T00:45:26.961Z,-0.8076
2019-04-06T00:45:38.111Z,-0.8148
2019-04-06T00:45:49.286Z,-0.8220
2019-04-06T00:46:00.445Z,-0.8232
2019-04-06T00:46:11.663Z,-0.8207
2019-04-06T00:46:22.815Z,-0.8208
2019-04-06T00:46:33.958Z,-0.8168
2019-04-06T00:46:45.131Z,-0.8182
2019-04-06T00:46:56.295Z,-0.8205
2019-04-06T00:47:07.459Z,-0.8271
2019-04-06T00:47:18.617Z,-0.8308
2019-04-06T00:47:29.765Z,-0.8345
2019-04-06T00:47:40.917Z,-0.8350
2019-04-06T00:47:52.105Z,-0.8336
2019-04-06T00:48:03.252Z,-0.8331
2019-04-06T00:48:14.397Z,-0.8347
2019-04-06T00:48:25.558Z,-0.8387
2019-04-06T00:48:36.720Z,-0.8456
2019-04-06T00:48:47.865Z,-0.8506
2019-04-06T00:48:59.064Z,-0.8555
2019-04-06T00:49:10.210Z,-0.8614
2019-04-06T00:49:21.353Z,-0.8717
2019-04-06T00:49:31.497Z,-0.8828
2019-04-06T00:49:42.646Z,-0.8908
2019-04-06T00:49:53.829Z,-0.9050
2019-04-06T00:50:04.985Z,-0.9134
2019-04-06T00:50:16.138Z,-0.9183
2019-04-06T00:50:27.291Z,-0.9245
2019-04-06T00:50:38.439Z,-0.9358
2019-04-06T00:50:49.650Z,-0.9429
2019-04-06T00:51:00.851Z,-0.9559
2019-04-06T00:51:12.018Z,-0.9698
2019-04-06T00:51:23.168Z,-0.9780
2019-04-06T00:51:34.335Z,-0.9893
2019-04-06T00:51:45.509Z,-1.0062
2019-04-06T00:51:56.651Z,-1.0206
2019-04-06T00:52:07.800Z,-1.0341
2019-04-06T00:52:18.972Z,-1.0515
2019-04-06T00:52:30.125Z,-1.0595
2019-04-06T00:52:41.296Z,-1.0705
2019-04-06T00:52:52.442Z,-1.0808
2019-04-06T00:53:03.614Z,-1.0830
2019-04-06T00:53:13.778Z,-1.0826
2019-04-06T00:53:24.989Z,-1.0816
2019-04-06T00:53:36.146Z,-1.0793
2019-04-06T00:53:46.314Z,-1.0795
2019-04-06T00:53:57.459Z,-1.0728
2019-04-06T00:54:08.598Z,-1.0746
2019-04-06T00:54:19.796Z,-1.0802
2019-04-06T00:54:30.954Z,-1.0837
2019-04-06T00:54:42.117Z,-1.0861
2019-04-06T00:54:53.259Z,-1.0846
2019-04-06T00:55:04.447Z,-1.0872
2019-04-06T00:55:15.657Z,-1.0828
2019-04-06T00:55:26.805Z,-1.0732
2019-04-06T00:55:37.985Z,-1.0612
2019-04-06T00:55:55.430Z,-1.0591
2019-04-06T00:56:05.255Z,-1.0620
2019-04-06T00:56:16.411Z,-1.0563
2019-04-06T00:56:27.571Z,-1.0536
2019-04-06T00:56:38.738Z,-1.0481
2019-04-06T00:56:49.925Z,-1.0445
2019-04-06T00:57:01.067Z,-1.0407
2019-04-06T00:57:12.208Z,-1.0390
2019-04-06T00:57:23.359Z,-1.0349
2019-04-06T00:57:34.501Z,-1.0297
2019-04-06T00:57:45.686Z,-1.0283
2019-04-06T00:57:56.834Z,-1.0298
2019-04-06T00:58:08.035Z,-1.0292
2019-04-06T00:58:18.208Z,-1.0303
2019-04-06T00:58:29.365Z,-1.0275
2019-04-06T00:58:40.524Z,-1.0312
2019-04-06T00:58:51.705Z,-1.0288
2019-04-06T00:59:02.848Z,-1.0267
2019-04-06T00:59:14.047Z,-1.0275
2019-04-06T00:59:25.205Z,-1.0276
2019-04-06T00:59:36.365Z,-1.0279
2019-04-06T00:59:47.508Z,-1.0343
2019-04-06T00:59:58.649Z,-1.0402
2019-04-06T01:00:09.799Z,-1.0468
2019-04-06T01:00:20.967Z,-1.0608
2019-04-06T01:00:32.116Z,-1.0710
2019-04-06T01:00:43.267Z,-1.0856
2019-04-06T01:00:54.476Z,-1.0987
2019-04-06T01:01:05.625Z,-1.1161
2019-04-06T01:01:16.854Z,-1.1319
2019-04-06T01:01:28.024Z,-1.1512
2019-04-06T01:01:39.176Z,-1.1685
2019-04-06T01:01:50.319Z,-1.1944
2019-04-06T01:02:01.468Z,-1.2184
2019-04-06T01:02:12.627Z,-1.2453
2019-04-06T01:02:23.784Z,-1.2793
2019-04-06T01:02:34.959Z,-1.3076
2019-04-06T01:02:45.117Z,-1.3332
2019-04-06T01:02:56.301Z,-1.3489
2019-04-06T01:03:07.492Z,-1.3759
2019-04-06T01:03:18.648Z,-1.4006
2019-04-06T01:03:29.804Z,-1.4179
2019-04-06T01:03:40.971Z,-1.4390
2019-04-06T01:03:52.127Z,-1.4481
2019-04-06T01:04:03.400Z,-1.4418
2019-04-06T01:04:14.557Z,-1.4184
2019-04-06T01:04:25.735Z,-1.3907
2019-04-06T01:04:36.885Z,-1.3492
2019-04-06T01:04:48.034Z,-1.3062
2019-04-06T01:04:59.181Z,-1.2592
2019-04-06T01:05:10.409Z,-1.2199
2019-04-06T01:05:21.612Z,-1.2046
2019-04-06T01:05:32.779Z,-1.2077
2019-04-06T01:05:43.955Z,-1.2292
2019-04-06T01:05:55.126Z,-1.2618
2019-04-06T01:06:06.275Z,-1.2924
2019-04-06T01:06:17.428Z,-1.3229
2019-04-06T01:06:28.586Z,-1.3426
2019-04-06T01:06:39.756Z,-1.3625
2019-04-06T01:06:49.924Z,-1.3768
2019-04-06T01:07:01.087Z,-1.3858
2019-04-06T01:07:12.240Z,-1.3968
2019-04-06T01:07:23.254Z,-1.4038
2019-04-06T01:07:34.678Z,-1.4089
2019-04-06T01:07:45.858Z,-1.4113
2019-04-06T01:07:56.040Z,-1.4113
2019-04-06T01:08:07.236Z,-1.4095
2019-04-06T01:08:18.427Z,-1.4062
2019-04-06T01:08:29.585Z,-1.3948
2019-04-06T01:08:40.727Z,-1.3842
2019-04-06T01:08:51.877Z,-1.3829
2019-04-06T01:09:03.173Z,-1.3803
2019-04-06T01:09:14.338Z,-1.3774
2019-04-06T01:09:24.536Z,-1.3734
2019-04-06T01:09:35.696Z,-1.3673
2019-04-06T01:09:46.905Z,-1.3583
2019-04-06T01:09:58.128Z,-1.3530
2019-04-06T01:10:09.278Z,-1.3500
2019-04-06T01:10:20.419Z,-1.3477
2019-04-06T01:10:31.581Z,-1.3455
2019-04-06T01:10:42.740Z,-1.3425
2019-04-06T01:10:53.887Z,-1.3371
2019-04-06T01:11:05.036Z,-1.3318
2019-04-06T01:11:16.192Z,-1.3284
2019-04-06T01:11:27.354Z,-1.3234
2019-04-06T01:11:38.547Z,-1.3232
2019-04-06T01:11:49.696Z,-1.3240
2019-04-06T01:12:00.927Z,-1.3257
2019-04-06T01:12:12.070Z,-1.3277
2019-04-06T01:12:22.237Z,-1.3315
2019-04-06T01:12:33.443Z,-1.3334
2019-04-06T01:12:44.657Z,-1.3354
2019-04-06T01:12:55.809Z,-1.3395
2019-04-06T01:13:06.967Z,-1.3429
2019-04-06T01:13:18.109Z,-1.3430
2019-04-06T01:13:29.257Z,-1.3428
2019-04-06T01:13:40.439Z,-1.3406
2019-04-06T01:13:57.899Z,-1.3373
2019-04-06T01:14:09.319Z,-1.3304
2019-04-06T01:14:21.048Z,-1.3184
2019-04-06T01:14:32.505Z,-1.3051
2019-04-06T01:14:43.940Z,-1.2889
2019-04-06T01:14:55.376Z,-1.2728
2019-04-06T01:15:06.885Z,-1.2552
2019-04-06T01:15:18.327Z,-1.2367
2019-04-06T01:15:28.835Z,-1.2217
2019-04-06T01:15:40.327Z,-1.2100
2019-04-06T01:15:51.761Z,-1.1992
2019-04-06T01:16:03.195Z,-1.1918
2019-04-06T01:16:14.609Z,-1.1860
2019-04-06T01:16:26.329Z,-1.1963
2019-04-06T01:16:37.775Z,-1.2151
2019-04-06T01:16:49.207Z,-1.2314
2019-04-06T01:17:00.673Z,-1.2521
2019-04-06T01:17:12.099Z,-1.2735
2019-04-06T01:17:23.545Z,-1.2958
2019-04-06T01:17:35.034Z,-1.3157
2019-04-06T01:17:46.516Z,-1.3344
2019-04-06T01:17:57.990Z,-1.3502
2019-04-06T01:18:09.478Z,-1.3745
2019-04-06T01:18:20.931Z,-1.4013
2019-04-06T01:18:32.367Z,-1.4287
2019-04-06T01:18:44.121Z,-1.4571
2019-04-06T01:18:55.548Z,-1.4846
2019-04-06T01:19:06.980Z,-1.5102
2019-04-06T01:19:18.408Z,-1.5370
2019-04-06T01:19:29.830Z,-1.5630
2019-04-06T01:19:41.257Z,-1.5906
2019-04-06T01:19:52.691Z,-1.6205
2019-04-06T01:20:04.140Z,-1.6544
2019-04-06T01:20:15.581Z,-1.6886
2019-04-06T01:20:27.057Z,-1.7191
2019-04-06T01:20:38.487Z,-1.7418
2019-04-06T01:20:49.929Z,-1.7729
2019-04-06T01:21:01.379Z,-1.8029
2019-04-06T01:21:12.841Z,-1.8362
2019-04-06T01:21:24.292Z,-1.8574
2019-04-06T01:21:35.739Z,-1.8799
2019-04-06T01:21:46.475Z,-1.8997
2019-04-06T01:21:57.915Z,-1.9088
2019-04-06T01:22:09.356Z,-1.9163
2019-04-06T01:22:20.779Z,-1.9268
2019-04-06T01:22:32.209Z,-1.9433
2019-04-06T01:22:43.646Z,-1.9590
2019-04-06T01:22:55.097Z,-1.9787
2019-04-06T01:23:06.545Z,-1.9890
2019-04-06T01:23:17.986Z,-2.0016
2019-04-06T01:23:29.457Z,-2.0136
2019-04-06T01:23:40.896Z,-2.0235
2019-04-06T01:23:52.321Z,-2.0352
2019-04-06T01:24:03.759Z,-2.0532
2019-04-06T01:24:15.195Z,-2.0711
2019-04-06T01:24:26.925Z,-2.0976
2019-04-06T01:24:38.441Z,-2.1216
2019-04-06T01:24:49.974Z,-2.1462
2019-04-06T01:25:01.407Z,-2.1690
2019-04-06T01:25:12.827Z,-2.1949
2019-04-06T01:25:24.373Z,-2.2062
2019-04-06T01:25:35.797Z,-2.2119
2019-04-06T01:25:47.257Z,-2.2082
2019-04-06T01:26:06.977Z,-2.2049
2019-04-06T01:26:15.099Z,-2.2016
2019-04-06T01:26:26.825Z,-2.1860
2019-04-06T01:26:38.287Z,-2.1744
2019-04-06T01:26:50.011Z,-2.1587
2019-04-06T01:27:01.455Z,-2.1405
2019-04-06T01:27:12.877Z,-2.1209
2019-04-06T01:27:24.307Z,-2.1060
2019-04-06T01:27:35.758Z,-2.0990
2019-04-06T01:27:47.175Z,-2.0939
2019-04-06T01:27:58.607Z,-2.0928
2019-04-06T01:28:10.078Z,-2.0875
2019-04-06T01:28:21.500Z,-2.0805
2019-04-06T01:28:32.939Z,-2.0721
2019-04-06T01:28:44.381Z,-2.0634
2019-04-06T01:28:55.823Z,-2.0613
2019-04-06T01:29:06.258Z,-2.0619
2019-04-06T01:29:17.706Z,-2.0596
2019-04-06T01:29:29.175Z,-2.0619
2019-04-06T01:29:40.607Z,-2.0605
2019-04-06T01:29:52.036Z,-2.0607
2019-04-06T01:30:03.457Z,-2.0621
2019-04-06T01:30:14.912Z,-2.0730
2019-04-06T01:30:26.345Z,-2.0848
2019-04-06T01:30:37.791Z,-2.0952
2019-04-06T01:30:49.544Z,-2.1092
2019-04-06T01:31:00.968Z,-2.1246
2019-04-06T01:31:11.555Z,-2.1379
2019-04-06T01:31:23.006Z,-2.1497
2019-04-06T01:31:34.427Z,-2.1628
2019-04-06T01:31:45.934Z,-2.1808
2019-04-06T01:31:57.368Z,-2.1949
2019-04-06T01:32:08.813Z,-2.2097
2019-04-06T01:32:20.241Z,-2.2186
2019-04-06T01:32:31.968Z,-2.2303
2019-04-06T01:32:43.405Z,-2.2416
2019-04-06T01:32:54.876Z,-2.2533
2019-04-06T01:33:06.598Z,-2.2624
2019-04-06T01:33:18.055Z,-2.2704
2019-04-06T01:33:29.795Z,-2.2813
2019-04-06T01:33:41.235Z,-2.2906
2019-04-06T01:33:52.962Z,-2.2980
2019-04-06T01:34:03.405Z,-2.3003
2019-04-06T01:34:14.838Z,-2.3013
2019-04-06T01:34:26.562Z,-2.3038
2019-04-06T01:34:37.995Z,-2.3053
2019-04-06T01:34:49.419Z,-2.3076
2019-04-06T01:35:00.858Z,-2.3101
2019-04-06T01:35:12.595Z,-2.3163
2019-04-06T01:35:24.023Z,-2.3213
2019-04-06T01:35:35.459Z,-2.3231
2019-04-06T01:35:47.182Z,-2.3243
2019-04-06T01:35:58.618Z,-2.3194
2019-04-06T01:36:09.118Z,-2.3126
2019-04-06T01:36:20.556Z,-2.3047
2019-04-06T01:36:32.015Z,-2.2968
2019-04-06T01:36:42.441Z,-2.2849
2019-04-06T01:36:53.871Z,-2.2747
2019-04-06T01:37:05.288Z,-2.2589
2019-04-06T01:37:15.765Z,-2.2383
2019-04-06T01:37:27.667Z,-2.2085
2019-04-06T01:37:39.088Z,-2.1661
2019-04-06T01:37:50.837Z,-2.1033
2019-04-06T01:38:02.257Z,-2.0603
2019-04-06T01:38:13.758Z,-2.0215
2019-04-06T01:38:25.195Z,-1.9898
2019-04-06T01:38:36.615Z,-1.9665
2019-04-06T01:38:48.078Z,-1.9440
2019-04-06T01:38:59.516Z,-1.9251
2019-04-06T01:39:10.975Z,-1.9160
2019-04-06T01:39:22.416Z,-1.9063
2019-04-06T01:39:32.848Z,-1.8969
2019-04-06T01:39:44.295Z,-1.8848
2019-04-06T01:39:55.729Z,-1.8816
2019-04-06T01:40:07.148Z,-1.8758
2019-04-06T01:40:17.584Z,-1.8757
2019-04-06T01:40:29.005Z,-1.8740
2019-04-06T01:40:40.437Z,-1.8773
2019-04-06T01:40:51.859Z,-1.8794
2019-04-06T01:41:03.608Z,-1.8787
2019-04-06T01:41:15.036Z,-1.8773
2019-04-06T01:41:26.472Z,-1.8754
2019-04-06T01:41:37.917Z,-1.8736
2019-04-06T01:41:49.371Z,-1.8712
2019-04-06T01:42:00.798Z,-1.8735
2019-04-06T01:42:12.249Z,-1.8752
2019-04-06T01:42:23.995Z,-1.8802
2019-04-06T01:42:35.416Z,-1.8893
2019-04-06T01:42:46.839Z,-1.8978
2019-04-06T01:42:58.279Z,-1.9059
2019-04-06T01:43:10.134Z,-1.9117
2019-04-06T01:43:21.579Z,-1.9201
2019-04-06T01:43:32.997Z,-1.9335
2019-04-06T01:43:44.449Z,-1.9454
2019-04-06T01:43:55.919Z,-1.9556
2019-04-06T01:44:06.365Z,-1.9688
2019-04-06T01:44:17.798Z,-1.9760
2019-04-06T01:44:29.248Z,-1.9814
2019-04-06T01:44:40.681Z,-1.9827
2019-04-06T01:44:52.115Z,-1.9863
2019-04-06T01:45:03.537Z,-1.9907
2019-04-06T01:45:14.975Z,-1.9955
2019-04-06T01:45:25.418Z,-2.0046
2019-04-06T01:45:36.860Z,-2.0115
2019-04-06T01:45:48.290Z,-2.0182
2019-04-06T01:45:59.710Z,-2.0118
2019-04-06T01:46:11.149Z,-1.9977
2019-04-06T01:46:22.681Z,-1.9825
2019-04-06T01:46:34.117Z,-1.9671
2019-04-06T01:46:45.555Z,-1.9525
2019-04-06T01:46:57.043Z,-1.9374
2019-04-06T01:47:08.785Z,-1.9209
2019-04-06T01:47:20.355Z,-1.9030
2019-04-06T01:47:31.841Z,-1.8834
2019-04-06T01:47:43.336Z,-1.8645
2019-04-06T01:47:54.768Z,-1.8479
2019-04-06T01:48:06.683Z,-1.8256
2019-04-06T01:48:18.154Z,-1.7991
2019-04-06T01:48:29.648Z,-1.7790
2019-04-06T01:48:41.100Z,-1.7621
2019-04-06T01:48:52.607Z,-1.7485
2019-04-06T01:49:04.039Z,-1.7397
2019-04-06T01:49:15.469Z,-1.7348
2019-04-06T01:49:26.896Z,-1.7332
2019-04-06T01:49:38.427Z,-1.7324
2019-04-06T01:49:49.887Z,-1.7354
2019-04-06T01:50:01.308Z,-1.7390
2019-04-06T01:50:12.738Z,-1.7463
2019-04-06T01:50:24.476Z,-1.7512
2019-04-06T01:50:36.000Z,-1.7571
2019-04-06T01:50:47.447Z,-1.7610
2019-04-06T01:50:58.885Z,-1.7615
2019-04-06T01:51:10.351Z,-1.7601
2019-04-06T01:51:21.789Z,-1.7581
2019-04-06T01:51:33.242Z,-1.7564
2019-04-06T01:51:44.699Z,-1.7490
2019-04-06T01:51:56.152Z,-1.7409
2019-04-06T01:52:07.692Z,-1.7338
2019-04-06T01:52:19.124Z,-1.7258
2019-04-06T01:52:30.848Z,-1.7195
2019-04-06T01:52:42.266Z,-1.7090
2019-04-06T01:52:53.688Z,-1.6984
2019-04-06T01:53:05.436Z,-1.6846
2019-04-06T01:53:16.865Z,-1.6718
2019-04-06T01:53:28.317Z,-1.6480
2019-04-06T01:53:39.751Z,-1.6179
2019-04-06T01:53:51.479Z,-1.5972
2019-04-06T01:54:03.024Z,-1.5866
2019-04-06T01:54:14.477Z,-1.5799
2019-04-06T01:54:25.903Z,-1.5801
2019-04-06T01:54:37.342Z,-1.5861
2019-04-06T01:54:48.967Z,-1.5915
2019-04-06T01:54:59.449Z,-1.6047
2019-04-06T01:55:11.238Z,-1.6141
2019-04-06T01:55:22.671Z,-1.6259
2019-04-06T01:55:34.184Z,-1.6412
2019-04-06T01:55:45.609Z,-1.6566
2019-04-06T01:55:57.027Z,-1.6689
2019-04-06T01:56:17.867Z,-1.6849
2019-04-06T01:56:24.848Z,-1.7077
2019-04-06T01:56:36.588Z,-1.7202
2019-04-06T01:56:48.020Z,-1.7328
2019-04-06T01:56:59.517Z,-1.7474
2019-04-06T01:57:10.958Z,-1.7695
2019-04-06T01:57:22.388Z,-1.7923
2019-04-06T01:57:33.824Z,-1.8167
2019-04-06T01:57:45.245Z,-1.8368
2019-04-06T01:57:56.669Z,-1.8326
2019-04-06T01:58:08.117Z,-1.8242
2019-04-06T01:58:19.560Z,-1.8055
2019-04-06T01:58:31.016Z,-1.7664
2019-04-06T01:58:42.462Z,-1.7183
2019-04-06T01:58:53.942Z,-1.6646
2019-04-06T01:59:05.367Z,-1.6088
2019-04-06T01:59:16.795Z,-1.5685
2019-04-06T01:59:28.226Z,-1.5440
2019-04-06T01:59:39.655Z,-1.5196
2019-04-06T01:59:51.087Z,-1.4777
2019-04-06T02:00:02.531Z,-1.4344
2019-04-06T02:00:14.265Z,-1.3979
2019-04-06T02:00:25.698Z,-1.3753
2019-04-06T02:00:37.445Z,-1.3364
2019-04-06T02:00:48.886Z,-1.2056
2019-04-06T02:01:00.349Z,-1.0378
2019-04-06T02:01:11.787Z,-0.8333
2019-04-06T02:01:23.242Z,-0.6267
2019-04-06T02:01:34.682Z,-0.4521
2019-04-06T02:01:46.114Z,-0.3038
2019-04-06T02:01:57.547Z,-0.1823
2019-04-06T02:02:09.007Z,-0.0834
2019-04-06T02:02:20.484Z,-0.0247
2019-04-06T02:02:31.909Z,-0.0027
2019-04-06T02:02:43.335Z,0.0039
2019-04-06T02:02:55.058Z,-0.0154
2019-04-06T02:03:06.512Z,-0.0468
2019-04-06T02:03:18.000Z,-0.1103
2019-04-06T02:03:29.531Z,-0.1970
2019-04-06T02:03:40.968Z,-0.2799
2019-04-06T02:03:52.405Z,-0.3657
2019-04-06T02:04:03.856Z,-0.4365
2019-04-06T02:04:15.693Z,-0.5059
2019-04-06T02:04:27.144Z,-0.5719
2019-04-06T02:04:38.586Z,-0.6303
2019-04-06T02:04:50.018Z,-0.6963
2019-04-06T02:05:01.497Z,-0.7524
2019-04-06T02:05:12.953Z,-0.8024
2019-04-06T02:05:24.386Z,-0.8486
2019-04-06T02:05:35.816Z,-0.9005
2019-04-06T02:05:47.255Z,-0.9390
2019-04-06T02:05:58.700Z,-0.9691
2019-04-06T02:06:09.207Z,-0.9827
2019-04-06T02:06:20.638Z,-0.9895
2019-04-06T02:06:32.065Z,-0.9917
2019-04-06T02:06:43.507Z,-0.9910
2019-04-06T02:06:55.274Z,-0.9929
2019-04-06T02:07:06.717Z,-0.9977
2019-04-06T02:07:18.194Z,-1.0040
2019-04-06T02:07:29.743Z,-1.0089
2019-04-06T02:07:41.171Z,-1.0058
2019-04-06T02:07:52.601Z,-0.9718
2019-04-06T02:08:04.056Z,-0.9358
2019-04-06T02:08:15.575Z,-0.9043
2019-04-06T02:08:27.035Z,-0.8528
2019-04-06T02:08:38.478Z,-0.7917
2019-04-06T02:08:49.923Z,-0.7056
2019-04-06T02:09:01.357Z,-0.6516
2019-04-06T02:09:12.786Z,-0.5903
2019-04-06T02:09:24.231Z,-0.5211
2019-04-06T02:09:35.690Z,-0.4365
2019-04-06T02:09:47.109Z,-0.3603
2019-04-06T02:09:58.878Z,-0.3033
2019-04-06T02:10:10.317Z,-0.2387
2019-04-06T02:10:21.761Z,-0.1869
2019-04-06T02:10:33.244Z,-0.1425
2019-04-06T02:10:44.701Z,-0.0909
2019-04-06T02:10:56.435Z,-0.0610
2019-04-06T02:11:07.866Z,-0.0464
2019-04-06T02:11:19.347Z,-0.0420
2019-04-06T02:11:30.798Z,-0.0562
2019-04-06T02:11:42.221Z,-0.0853
2019-04-06T02:11:53.649Z,-0.1350
2019-04-06T02:12:05.086Z,-0.2010
2019-04-06T02:12:16.811Z,-0.2903
2019-04-06T02:12:28.288Z,-0.4056
2019-04-06T02:12:39.716Z,-0.5112
2019-04-06T02:12:51.159Z,-0.6103
2019-04-06T02:13:02.587Z,-0.6968
2019-04-06T02:13:14.030Z,-0.7772
2019-04-06T02:13:24.471Z,-0.8461
2019-04-06T02:13:35.927Z,-0.8955
2019-04-06T02:13:47.411Z,-0.9413
2019-04-06T02:13:58.880Z,-0.9726
2019-04-06T02:14:10.312Z,-0.9861
2019-04-06T02:14:21.746Z,-1.0043
2019-04-06T02:14:33.180Z,-1.0117
2019-04-06T02:14:44.617Z,-1.0123
2019-04-06T02:14:56.099Z,-0.9991
2019-04-06T02:15:07.531Z,-0.9491
2019-04-06T02:15:18.260Z,-0.8764
2019-04-06T02:15:29.751Z,-0.7813
2019-04-06T02:15:41.176Z,-0.6615
2019-04-06T02:15:52.639Z,-0.5554
2019-04-06T02:16:04.076Z,-0.4335
2019-04-06T02:16:15.503Z,-0.3151
2019-04-06T02:16:26.929Z,-0.2098
2019-04-06T02:16:38.370Z,-0.1142